Time;durP1;ratioP1;P1;durP2;ratioP2;P2;SDS_P1;SDS_P2;PMS_P1;PMS_P2;Temp;Humidity;BMP_temperature;BMP_pressure;BME280_temperature;BME280_humidity;BME280_pressure;Samples;Min_cycle;Max_cycle;Signal;HPM_P1;HPM_P2
2023/10/25 00:02:06;;;;;;;173.77;36.47;;;;;;;;;;5075847;28;20043;-67
2023/10/25 00:04:31;;;;;;;169.00;36.37;;;;;;;;;;5075775;28;20028;-68
2023/10/25 00:06:57;;;;;;;180.93;37.27;;;;;;;;;;5080849;28;20103;-68
2023/10/25 00:09:22;;;;;;;172.43;36.20;;;;;;;;;;5080672;28;20052;-68
2023/10/25 00:11:47;;;;;;;168.80;37.00;;;;;;;;;;5078263;28;20024;-68
2023/10/25 00:14:12;;;;;;;166.90;35.37;;;;;;;;;;5078111;28;20353;-68
2023/10/25 00:16:38;;;;;;;172.43;35.83;;;;;;;;;;5080587;28;20523;-68
2023/10/25 00:19:03;;;;;;;168.10;35.93;;;;;;;;;;5080687;28;20430;-68
2023/10/25 00:21:28;;;;;;;178.63;37.10;;;;;;;;;;5077586;28;20063;-68
2023/10/25 00:23:53;;;;;;;160.53;35.27;;;;;;;;;;5072814;28;20086;-68
2023/10/25 00:26:18;;;;;;;172.30;35.97;;;;;;;;;;5076998;28;20379;-69
2023/10/25 00:28:44;;;;;;;182.27;36.47;;;;;;;;;;5080324;28;20486;-69
2023/10/25 00:31:09;;;;;;;175.40;37.10;;;;;;;;;;5078979;28;20482;-68
2023/10/25 00:33:34;;;;;;;177.90;35.90;;;;;;;;;;5082757;28;20030;-69
2023/10/25 00:35:59;;;;;;;179.07;36.27;;;;;;;;;;5079749;28;20023;-69
2023/10/25 00:38:25;;;;;;;162.40;35.40;;;;;;;;;;5077654;28;20164;-69
2023/10/25 00:40:50;;;;;;;181.53;35.97;;;;;;;;;;5081034;28;20024;-70
2023/10/25 00:43:22;;;;;;;170.93;36.70;;;;;;;;;;5078774;28;20054;-70
2023/10/25 00:45:55;;;;;;;180.53;37.23;;;;;;;;;;5079243;28;20036;-71
2023/10/25 00:48:21;;;;;;;178.67;35.93;;;;;;;;;;5081900;28;20422;-70
2023/10/25 00:50:46;;;;;;;169.50;35.37;;;;;;;;;;5075899;28;20276;-70
2023/10/25 00:53:12;;;;;;;187.50;37.77;;;;;;;;;;5076942;28;20074;-70
2023/10/25 00:55:37;;;;;;;170.63;37.07;;;;;;;;;;5076563;28;20016;-70
2023/10/25 00:58:03;;;;;;;160.60;35.07;;;;;;;;;;5074923;28;20027;-70
2023/10/25 01:00:28;;;;;;;171.67;35.03;;;;;;;;;;5075877;28;20271;-70
2023/10/25 01:02:53;;;;;;;169.07;35.67;;;;;;;;;;5073293;28;20040;-70
2023/10/25 01:05:19;;;;;;;174.10;36.77;;;;;;;;;;5077096;28;20498;-69
2023/10/25 01:07:44;;;;;;;172.80;36.20;;;;;;;;;;5075461;28;20093;-69
2023/10/25 01:10:09;;;;;;;180.20;35.27;;;;;;;;;;5073315;28;20026;-69
2023/10/25 01:12:34;;;;;;;180.80;35.13;;;;;;;;;;5075712;28;20060;-69
2023/10/25 01:15:00;;;;;;;156.23;33.80;;;;;;;;;;5074252;28;20296;-69
2023/10/25 01:17:25;;;;;;;162.70;34.33;;;;;;;;;;5078865;28;20031;-68
2023/10/25 01:19:50;;;;;;;161.93;34.83;;;;;;;;;;5074397;28;20024;-69
2023/10/25 01:22:15;;;;;;;170.40;34.97;;;;;;;;;;5079721;28;20053;-69
2023/10/25 01:24:41;;;;;;;180.97;35.27;;;;;;;;;;5076088;28;20084;-69
2023/10/25 01:27:06;;;;;;;175.57;36.03;;;;;;;;;;5080837;28;20107;-69
2023/10/25 01:29:31;;;;;;;178.10;34.27;;;;;;;;;;5081017;28;20024;-69
2023/10/25 01:31:56;;;;;;;175.37;36.80;;;;;;;;;;5078722;28;20028;-69
2023/10/25 01:34:22;;;;;;;169.97;35.17;;;;;;;;;;5079752;28;20416;-69
2023/10/25 01:36:47;;;;;;;179.47;36.47;;;;;;;;;;5060339;28;20033;-69
2023/10/25 01:39:12;;;;;;;168.23;37.33;;;;;;;;;;5078588;28;20252;-69
2023/10/25 01:41:37;;;;;;;166.33;37.87;;;;;;;;;;5082161;28;20034;-70
2023/10/25 01:44:03;;;;;;;171.80;37.50;;;;;;;;;;5082947;28;20028;-69
2023/10/25 01:46:28;;;;;;;163.27;36.17;;;;;;;;;;5083819;28;20026;-70
2023/10/25 01:48:53;;;;;;;174.70;35.27;;;;;;;;;;5081803;28;20107;-69
2023/10/25 01:51:19;;;;;;;170.43;35.37;;;;;;;;;;5080639;28;20016;-69
2023/10/25 01:53:44;;;;;;;156.27;34.53;;;;;;;;;;5082887;28;20056;-69
2023/10/25 01:56:09;;;;;;;157.97;35.43;;;;;;;;;;5084193;28;20036;-69
2023/10/25 01:58:34;;;;;;;160.40;35.67;;;;;;;;;;5082006;28;20073;-69
2023/10/25 02:01:03;;;;;;;169.87;35.33;;;;;;;;;;5078645;28;20092;-69
2023/10/25 02:03:28;;;;;;;155.50;34.00;;;;;;;;;;5078514;28;20047;-69
2023/10/25 02:05:53;;;;;;;163.90;35.63;;;;;;;;;;5081834;28;20012;-68
2023/10/25 02:08:19;;;;;;;174.50;38.57;;;;;;;;;;5080927;28;20463;-69
2023/10/25 02:10:44;;;;;;;164.27;38.23;;;;;;;;;;5080515;28;20588;-69
2023/10/25 02:13:09;;;;;;;170.17;35.63;;;;;;;;;;5078557;28;20471;-68
2023/10/25 02:15:34;;;;;;;166.73;36.30;;;;;;;;;;5079732;28;20036;-69
2023/10/25 02:18:00;;;;;;;140.33;31.07;;;;;;;;;;5083124;28;20073;-68
2023/10/25 02:20:27;;;;;;;168.57;37.27;;;;;;;;;;5084083;28;20559;-69
2023/10/25 02:22:52;;;;;;;172.13;38.30;;;;;;;;;;5078687;28;20035;-69
2023/10/25 02:25:18;;;;;;;158.83;37.47;;;;;;;;;;5080849;28;20617;-68
2023/10/25 02:27:43;;;;;;;157.27;37.17;;;;;;;;;;5080051;28;20267;-69
2023/10/25 02:30:08;;;;;;;166.70;39.23;;;;;;;;;;5080304;28;20080;-69
2023/10/25 02:32:34;;;;;;;153.70;36.87;;;;;;;;;;5082790;28;20035;-69
2023/10/25 02:34:59;;;;;;;156.10;36.40;;;;;;;;;;5081245;28;20024;-69
2023/10/25 02:37:24;;;;;;;157.93;39.33;;;;;;;;;;5082263;28;20154;-70
2023/10/25 02:39:49;;;;;;;155.67;37.30;;;;;;;;;;5079633;28;20023;-70
2023/10/25 02:42:14;;;;;;;155.40;37.13;;;;;;;;;;5082378;28;20021;-70
2023/10/25 02:44:40;;;;;;;166.50;38.33;;;;;;;;;;5082974;28;20062;-69
2023/10/25 02:47:06;;;;;;;167.20;37.73;;;;;;;;;;5083349;28;20436;-70
2023/10/25 02:49:31;;;;;;;162.70;36.60;;;;;;;;;;5082444;28;20031;-70
2023/10/25 02:51:56;;;;;;;162.07;36.63;;;;;;;;;;5081325;28;20016;-70
2023/10/25 02:54:21;;;;;;;156.27;35.77;;;;;;;;;;5082504;28;20043;-70
2023/10/25 02:56:47;;;;;;;142.87;36.20;;;;;;;;;;5081248;28;20020;-70
2023/10/25 02:59:12;;;;;;;167.73;37.73;;;;;;;;;;5080951;28;20032;-69
2023/10/25 03:01:37;;;;;;;156.93;36.20;;;;;;;;;;5082452;28;20040;-70
2023/10/25 03:04:03;;;;;;;159.27;36.27;;;;;;;;;;5081677;28;20024;-69
2023/10/25 03:06:28;;;;;;;159.90;35.53;;;;;;;;;;5083883;28;20098;-69
2023/10/25 03:08:53;;;;;;;161.50;37.17;;;;;;;;;;5079087;28;20036;-69
2023/10/25 03:11:18;;;;;;;173.77;37.70;;;;;;;;;;5080428;28;20564;-69
2023/10/25 03:13:43;;;;;;;178.33;38.43;;;;;;;;;;5080905;28;20012;-69
2023/10/25 03:16:09;;;;;;;165.33;37.57;;;;;;;;;;5082002;28;20446;-69
2023/10/25 03:18:34;;;;;;;168.10;37.77;;;;;;;;;;5080487;28;20041;-69
2023/10/25 03:21:01;;;;;;;166.20;38.17;;;;;;;;;;5078095;28;20009;-69
2023/10/25 03:23:27;;;;;;;164.57;37.33;;;;;;;;;;5079042;28;20031;-69
2023/10/25 03:25:52;;;;;;;165.03;38.07;;;;;;;;;;5080250;28;20046;-69
2023/10/25 03:28:17;;;;;;;167.00;38.97;;;;;;;;;;5082300;28;20016;-68
2023/10/25 03:30:42;;;;;;;165.50;38.67;;;;;;;;;;5082382;28;20081;-69
2023/10/25 03:33:07;;;;;;;167.70;37.80;;;;;;;;;;5080634;28;20024;-69
2023/10/25 03:35:33;;;;;;;162.47;37.50;;;;;;;;;;5081761;28;20281;-68
2023/10/25 03:37:58;;;;;;;162.97;38.43;;;;;;;;;;5081333;28;20062;-69
2023/10/25 03:40:23;;;;;;;174.73;37.17;;;;;;;;;;5081247;28;20040;-69
2023/10/25 03:42:48;;;;;;;160.20;38.73;;;;;;;;;;5081824;28;20028;-69
2023/10/25 03:45:14;;;;;;;163.07;37.23;;;;;;;;;;5082160;28;20388;-66
2023/10/25 03:47:39;;;;;;;180.53;38.40;;;;;;;;;;5080613;28;20077;-66
2023/10/25 03:50:04;;;;;;;167.00;37.73;;;;;;;;;;5080739;28;20064;-69
2023/10/25 03:52:30;;;;;;;173.03;37.37;;;;;;;;;;5082050;28;20028;-67
2023/10/25 03:54:55;;;;;;;172.93;37.83;;;;;;;;;;5076719;28;20024;-67
2023/10/25 03:57:20;;;;;;;169.40;38.37;;;;;;;;;;5079561;28;20028;-66
2023/10/25 03:59:45;;;;;;;167.77;35.60;;;;;;;;;;5076723;28;20024;-66
2023/10/25 04:02:11;;;;;;;163.27;37.53;;;;;;;;;;5080010;28;20056;-67
2023/10/25 04:04:36;;;;;;;180.63;36.70;;;;;;;;;;5079725;28;20520;-66
2023/10/25 04:07:01;;;;;;;175.70;36.63;;;;;;;;;;5077574;28;20046;-66
2023/10/25 04:09:27;;;;;;;179.17;37.53;;;;;;;;;;5076442;28;20034;-66
2023/10/25 04:11:52;;;;;;;169.27;36.07;;;;;;;;;;5084117;28;20107;-66
2023/10/25 04:14:17;;;;;;;153.70;35.63;;;;;;;;;;5079324;28;20463;-66
2023/10/25 04:16:43;;;;;;;156.43;35.03;;;;;;;;;;5078222;28;20062;-66
2023/10/25 04:19:08;;;;;;;180.37;37.53;;;;;;;;;;5078781;28;20072;-66
2023/10/25 04:21:33;;;;;;;173.83;35.87;;;;;;;;;;5077494;28;20103;-66
2023/10/25 04:23:58;;;;;;;165.77;36.40;;;;;;;;;;5079462;28;20039;-66
2023/10/25 04:26:24;;;;;;;166.27;36.57;;;;;;;;;;5080306;28;20028;-66
2023/10/25 04:28:49;;;;;;;169.13;36.43;;;;;;;;;;5076353;28;20016;-66
2023/10/25 04:31:16;;;;;;;158.37;35.23;;;;;;;;;;5076029;28;20431;-67
2023/10/25 04:33:41;;;;;;;168.77;35.57;;;;;;;;;;5079962;28;20684;-66
2023/10/25 04:36:07;;;;;;;157.40;34.63;;;;;;;;;;5077167;28;20023;-66
2023/10/25 04:38:32;;;;;;;149.53;32.83;;;;;;;;;;5079617;28;20024;-66
2023/10/25 04:40:57;;;;;;;159.93;34.00;;;;;;;;;;5079491;28;20404;-65
2023/10/25 04:43:23;;;;;;;155.50;33.00;;;;;;;;;;5081091;28;20028;-66
2023/10/25 04:45:48;;;;;;;155.03;33.50;;;;;;;;;;5078042;28;20026;-67
2023/10/25 04:48:13;;;;;;;146.10;31.50;;;;;;;;;;5080609;28;20028;-66
2023/10/25 04:50:39;;;;;;;141.23;32.67;;;;;;;;;;5079293;28;20195;-66
2023/10/25 04:53:04;;;;;;;144.47;31.17;;;;;;;;;;5080101;28;20033;-66
2023/10/25 04:55:30;;;;;;;146.13;32.30;;;;;;;;;;5079508;28;20032;-69
2023/10/25 04:57:58;;;;;;;144.63;30.47;;;;;;;;;;5074949;28;20027;-69
2023/10/25 05:00:24;;;;;;;148.77;30.63;;;;;;;;;;5081224;28;20032;-69
2023/10/25 05:02:49;;;;;;;147.97;31.17;;;;;;;;;;5080317;28;20373;-68
2023/10/25 05:05:15;;;;;;;136.30;30.17;;;;;;;;;;5080671;28;20020;-69
2023/10/25 05:07:40;;;;;;;142.83;29.20;;;;;;;;;;5076843;28;20473;-69
2023/10/25 05:10:06;;;;;;;138.57;28.17;;;;;;;;;;5081123;28;20041;-68
2023/10/25 05:12:44;;;;;;;143.70;28.30;;;;;;;;;;5077322;28;20028;-68
2023/10/25 05:15:14;;;;;;;140.30;29.57;;;;;;;;;;5076412;28;20043;-69
2023/10/25 05:17:40;;;;;;;133.47;28.80;;;;;;;;;;5073523;28;20123;-70
2023/10/25 05:20:06;;;;;;;133.27;28.00;;;;;;;;;;5078565;28;20338;-70
2023/10/25 05:22:38;;;;;;;136.50;27.80;;;;;;;;;;5082559;28;20123;-69
2023/10/25 05:25:05;;;;;;;131.30;27.90;;;;;;;;;;5082041;28;20008;-69
2023/10/25 05:27:31;;;;;;;137.37;29.10;;;;;;;;;;5078645;28;20023;-70
2023/10/25 05:29:59;;;;;;;125.30;28.07;;;;;;;;;;5072566;28;20487;-70
2023/10/25 05:32:25;;;;;;;137.33;27.43;;;;;;;;;;5080029;28;20017;-70
2023/10/25 05:34:51;;;;;;;135.43;28.10;;;;;;;;;;5080550;28;20031;-70
2023/10/25 05:37:16;;;;;;;118.20;28.93;;;;;;;;;;5080269;28;20016;-70
2023/10/25 05:39:42;;;;;;;129.27;27.50;;;;;;;;;;5077521;28;20004;-70
2023/10/25 05:42:07;;;;;;;131.40;26.93;;;;;;;;;;5077832;28;20087;-70
2023/10/25 05:44:33;;;;;;;118.67;26.87;;;;;;;;;;5078182;28;20384;-70
2023/10/25 05:46:58;;;;;;;123.83;26.37;;;;;;;;;;5080588;28;20012;-70
2023/10/25 05:49:23;;;;;;;120.97;26.33;;;;;;;;;;5079111;28;20601;-71
2023/10/25 05:51:49;;;;;;;124.13;25.27;;;;;;;;;;5079924;28;20468;-70
2023/10/25 05:54:14;;;;;;;121.57;26.03;;;;;;;;;;5077802;28;20020;-70
2023/10/25 05:56:40;;;;;;;119.67;25.30;;;;;;;;;;5079822;28;20012;-70
2023/10/25 05:59:05;;;;;;;113.67;25.40;;;;;;;;;;5080092;28;20034;-70
2023/10/25 06:01:49;;;;;;;126.23;26.20;;;;;;;;;;5077825;28;20028;-70
2023/10/25 06:04:15;;;;;;;112.33;24.90;;;;;;;;;;5079096;28;20051;-68
2023/10/25 06:06:41;;;;;;;116.73;25.97;;;;;;;;;;5076009;28;20495;-67
2023/10/25 06:09:08;;;;;;;120.90;26.03;;;;;;;;;;5077324;28;20020;-68
2023/10/25 06:11:33;;;;;;;115.97;23.87;;;;;;;;;;5075561;28;20086;-69
2023/10/25 06:13:59;;;;;;;109.23;24.40;;;;;;;;;;5074844;28;20479;-69
2023/10/25 06:16:24;;;;;;;112.60;24.43;;;;;;;;;;5077614;28;20020;-69
2023/10/25 06:18:49;;;;;;;104.10;24.23;;;;;;;;;;5078993;28;20158;-67
2023/10/25 06:21:14;;;;;;;112.87;24.10;;;;;;;;;;5078693;28;20024;-68
2023/10/25 06:23:39;;;;;;;113.53;24.10;;;;;;;;;;5075706;28;20713;-68
2023/10/25 06:26:05;;;;;;;108.23;23.50;;;;;;;;;;5079683;28;20321;-69
2023/10/25 06:28:32;;;;;;;118.30;25.60;;;;;;;;;;5082454;28;20345;-68
2023/10/25 06:30:57;;;;;;;115.70;24.83;;;;;;;;;;5085014;28;20016;-68
2023/10/25 06:33:24;;;;;;;109.97;25.07;;;;;;;;;;5085858;28;20545;-68
2023/10/25 06:35:49;;;;;;;115.30;23.93;;;;;;;;;;5084308;28;20422;-68
2023/10/25 06:38:14;;;;;;;112.47;23.17;;;;;;;;;;5076463;28;20069;-69
2023/10/25 06:40:40;;;;;;;106.40;24.47;;;;;;;;;;5081831;28;20093;-69
2023/10/25 06:43:05;;;;;;;111.10;23.63;;;;;;;;;;5084366;28;20456;-68
2023/10/25 06:45:31;;;;;;;110.20;23.33;;;;;;;;;;5083451;28;20052;-68
2023/10/25 06:47:56;;;;;;;113.13;23.37;;;;;;;;;;5081280;28;20020;-68
2023/10/25 06:50:25;;;;;;;111.23;22.93;;;;;;;;;;5083303;28;20040;-68
2023/10/25 06:52:50;;;;;;;110.60;23.37;;;;;;;;;;5081500;28;20026;-69
2023/10/25 06:55:15;;;;;;;97.83;21.30;;;;;;;;;;5084254;28;20103;-68
2023/10/25 06:57:41;;;;;;;100.33;22.77;;;;;;;;;;5079522;28;20043;-68
2023/10/25 07:00:08;;;;;;;84.13;21.60;;;;;;;;;;5081644;28;20073;-68
2023/10/25 07:02:46;;;;;;;81.17;20.70;;;;;;;;;;5081640;28;20305;-69
2023/10/25 07:05:15;;;;;;;80.20;19.57;;;;;;;;;;5078487;28;20550;-68
2023/10/25 07:07:43;;;;;;;68.07;17.90;;;;;;;;;;5083375;28;20019;-66
2023/10/25 07:10:08;;;;;;;72.27;18.60;;;;;;;;;;5077061;28;20287;-67
2023/10/25 07:12:34;;;;;;;53.43;16.63;;;;;;;;;;5081236;28;20023;-67
2023/10/25 07:14:59;;;;;;;48.67;15.20;;;;;;;;;;5080821;28;20085;-66
2023/10/25 07:17:27;;;;;;;50.00;14.80;;;;;;;;;;5079769;28;20380;-66
2023/10/25 07:19:52;;;;;;;42.43;13.33;;;;;;;;;;5080410;28;20012;-66
2023/10/25 07:22:17;;;;;;;38.20;12.77;;;;;;;;;;5075440;28;20023;-64
2023/10/25 07:24:43;;;;;;;28.80;11.20;;;;;;;;;;5080539;28;20468;-64
2023/10/25 07:27:08;;;;;;;20.83;9.10;;;;;;;;;;5083343;28;20428;-65
2023/10/25 07:29:36;;;;;;;17.70;8.60;;;;;;;;;;5081850;28;20377;-65
2023/10/25 07:32:01;;;;;;;17.37;8.00;;;;;;;;;;5082596;28;20024;-65
2023/10/25 07:34:27;;;;;;;15.70;7.40;;;;;;;;;;5080589;28;20217;-64
2023/10/25 07:36:52;;;;;;;11.63;5.82;;;;;;;;;;5074051;28;20012;-64
2023/10/25 07:39:17;;;;;;;13.23;6.43;;;;;;;;;;5082948;28;20012;-63
2023/10/25 07:41:42;;;;;;;13.35;5.47;;;;;;;;;;5081917;28;20016;-65
2023/10/25 07:44:07;;;;;;;10.00;5.47;;;;;;;;;;5083507;28;20372;-63
2023/10/25 07:46:33;;;;;;;10.55;5.32;;;;;;;;;;5079876;28;20345;-64
2023/10/25 07:48:58;;;;;;;12.05;5.85;;;;;;;;;;5077504;28;20475;-64
2023/10/25 07:51:24;;;;;;;10.82;5.40;;;;;;;;;;5082458;28;20028;-62
2023/10/25 07:53:49;;;;;;;9.98;5.38;;;;;;;;;;5079018;28;20024;-63
2023/10/25 07:56:14;;;;;;;13.90;5.65;;;;;;;;;;5079244;28;20020;-61
2023/10/25 07:58:39;;;;;;;9.60;5.10;;;;;;;;;;5082133;28;20024;-62
2023/10/25 08:01:05;;;;;;;9.35;4.88;;;;;;;;;;5081563;28;20012;-62
2023/10/25 08:03:30;;;;;;;8.35;4.40;;;;;;;;;;5082969;28;20052;-61
2023/10/25 08:05:55;;;;;;;8.48;4.20;;;;;;;;;;5079763;28;20031;-61
2023/10/25 08:08:21;;;;;;;8.35;4.32;;;;;;;;;;5075272;28;20023;-61
2023/10/25 08:10:46;;;;;;;7.13;4.03;;;;;;;;;;5082750;28;20016;-60
2023/10/25 08:13:11;;;;;;;8.43;4.90;;;;;;;;;;5076533;28;20032;-62
2023/10/25 08:15:37;;;;;;;7.60;3.60;;;;;;;;;;5080776;28;20523;-60
2023/10/25 08:18:02;;;;;;;8.40;4.40;;;;;;;;;;5076029;28;20392;-61
2023/10/25 08:20:27;;;;;;;7.60;4.18;;;;;;;;;;5077062;28;20027;-62
2023/10/25 08:22:52;;;;;;;11.20;4.68;;;;;;;;;;5077794;28;20027;-62
2023/10/25 08:25:18;;;;;;;9.40;4.40;;;;;;;;;;5077485;28;20016;-62
2023/10/25 08:27:43;;;;;;;8.75;4.60;;;;;;;;;;5080442;28;20024;-61
2023/10/25 08:30:08;;;;;;;10.50;5.03;;;;;;;;;;5075267;28;20547;-62
2023/10/25 08:32:33;;;;;;;8.48;4.60;;;;;;;;;;5075845;28;20065;-60
2023/10/25 08:34:59;;;;;;;10.57;4.40;;;;;;;;;;5076954;28;20008;-61
2023/10/25 08:37:24;;;;;;;8.63;4.60;;;;;;;;;;5080975;28;20088;-63
2023/10/25 08:39:49;;;;;;;8.75;4.93;;;;;;;;;;5082347;28;20481;-61
2023/10/25 08:42:14;;;;;;;8.65;4.82;;;;;;;;;;5080426;28;20471;-62
2023/10/25 08:44:42;;;;;;;8.75;4.97;;;;;;;;;;5075046;28;20464;-63
2023/10/25 08:47:11;;;;;;;9.37;4.43;;;;;;;;;;5077804;28;20119;-62
2023/10/25 08:49:37;;;;;;;7.70;4.60;;;;;;;;;;5079525;28;20423;-63
2023/10/25 08:52:03;;;;;;;11.03;5.27;;;;;;;;;;5080228;28;20193;-62
2023/10/25 08:54:31;;;;;;;10.67;5.30;;;;;;;;;;5081778;28;20107;-62
2023/10/25 08:56:56;;;;;;;9.23;4.50;;;;;;;;;;5076146;28;20035;-62
2023/10/25 08:59:21;;;;;;;9.83;4.73;;;;;;;;;;5081487;28;20008;-62
2023/10/25 09:01:47;;;;;;;7.93;4.37;;;;;;;;;;5080094;28;20611;-62
2023/10/25 09:04:12;;;;;;;9.20;4.47;;;;;;;;;;5078359;28;20081;-63
2023/10/25 09:06:38;;;;;;;10.73;4.83;;;;;;;;;;5079370;28;20472;-62
2023/10/25 09:09:06;;;;;;;12.40;5.30;;;;;;;;;;5080418;28;20276;-63
2023/10/25 09:11:39;;;;;;;10.93;4.90;;;;;;;;;;5082220;28;20024;-62
2023/10/25 09:14:04;;;;;;;7.90;3.93;;;;;;;;;;5079193;28;20013;-63
2023/10/25 09:16:30;;;;;;;10.90;4.80;;;;;;;;;;5078515;28;20514;-63
2023/10/25 09:18:57;;;;;;;10.60;4.70;;;;;;;;;;5078433;28;20587;-63
2023/10/25 09:21:28;;;;;;;10.00;4.40;;;;;;;;;;5079797;28;20412;-64
2023/10/25 09:23:54;;;;;;;8.32;4.07;;;;;;;;;;5075783;28;20364;-63
2023/10/25 09:26:20;;;;;;;9.25;4.53;;;;;;;;;;5079199;28;20419;-63
2023/10/25 09:28:48;;;;;;;8.60;3.60;;;;;;;;;;5074265;28;20048;-64
2023/10/25 09:31:26;;;;;;;10.07;3.83;;;;;;;;;;5078957;28;20035;-63
2023/10/25 09:33:52;;;;;;;6.68;3.45;;;;;;;;;;5079358;28;20016;-66
2023/10/25 09:36:21;;;;;;;5.15;3.13;;;;;;;;;;5078173;28;20021;-66
2023/10/25 09:38:46;;;;;;;10.18;3.45;;;;;;;;;;5079296;28;20020;-67
2023/10/25 09:41:13;;;;;;;8.95;3.63;;;;;;;;;;5073869;28;20952;-66
2023/10/25 09:43:38;;;;;;;9.50;3.83;;;;;;;;;;5074957;28;20307;-66
2023/10/25 09:46:07;;;;;;;6.88;3.58;;;;;;;;;;5078333;28;20016;-66
2023/10/25 09:48:35;;;;;;;5.80;2.83;;;;;;;;;;5080186;28;20012;-66
2023/10/25 09:51:06;;;;;;;6.60;3.28;;;;;;;;;;5080275;28;20165;-67
2023/10/25 09:53:41;;;;;;;6.95;3.03;;;;;;;;;;5076452;28;20028;-65
2023/10/25 09:56:08;;;;;;;10.13;3.35;;;;;;;;;;5076437;28;20508;-67
2023/10/25 09:58:34;;;;;;;6.55;2.85;;;;;;;;;;5082534;28;20469;-68
2023/10/25 10:01:00;;;;;;;6.00;3.22;;;;;;;;;;5079625;28;20472;-66
2023/10/25 10:03:25;;;;;;;8.23;3.67;;;;;;;;;;5084967;28;20060;-66
2023/10/25 10:05:53;;;;;;;8.40;3.20;;;;;;;;;;5068218;28;20384;-66
2023/10/25 10:08:27;;;;;;;10.40;4.05;;;;;;;;;;5085249;28;20024;-65
2023/10/25 10:10:55;;;;;;;6.88;2.95;;;;;;;;;;5084710;28;20144;-69
2023/10/25 10:13:21;;;;;;;7.30;2.67;;;;;;;;;;5082928;28;20024;-65
2023/10/25 10:16:05;;;;;;;6.22;2.72;;;;;;;;;;5081319;28;20043;-66
2023/10/25 10:18:33;;;;;;;5.32;3.00;;;;;;;;;;5082691;28;20236;-67
2023/10/25 10:21:00;;;;;;;7.18;2.92;;;;;;;;;;5082484;28;20034;-65
2023/10/25 10:23:50;;;;;;;7.85;2.75;;;;;;;;;;5078217;28;20082;-66
2023/10/25 10:26:34;;;;;;;6.45;2.83;;;;;;;;;;5080758;28;20025;-68
2023/10/25 10:28:59;;;;;;;9.38;3.13;;;;;;;;;;5083842;28;20391;-67
2023/10/25 10:31:24;;;;;;;10.85;2.80;;;;;;;;;;5078502;28;20135;-66
2023/10/25 10:33:49;;;;;;;8.43;3.30;;;;;;;;;;5081852;28;20372;-66
2023/10/25 10:36:25;;;;;;;7.22;3.10;;;;;;;;;;5079148;28;20435;-67
2023/10/25 10:39:09;;;;;;;8.50;3.40;;;;;;;;;;5079038;28;20056;-65
2023/10/25 10:41:34;;;;;;;6.90;3.65;;;;;;;;;;5079763;28;20281;-65
2023/10/25 10:43:59;;;;;;;9.63;3.65;;;;;;;;;;5081162;28;20031;-65
2023/10/25 10:46:28;;;;;;;5.47;3.20;;;;;;;;;;5083098;28;20091;-65
2023/10/25 10:48:55;;;;;;;5.28;3.33;;;;;;;;;;5082409;28;20086;-66
2023/10/25 10:51:20;;;;;;;9.95;4.57;;;;;;;;;;5080906;28;20392;-67
2023/10/25 10:53:46;;;;;;;8.52;4.07;;;;;;;;;;5080647;28;20356;-65
2023/10/25 10:56:11;;;;;;;11.38;4.32;;;;;;;;;;5083168;28;20048;-65
2023/10/25 10:58:36;;;;;;;11.80;4.38;;;;;;;;;;5082051;28;20417;-65
2023/10/25 11:01:02;;;;;;;11.32;4.35;;;;;;;;;;5083786;28;20555;-66
2023/10/25 11:03:27;;;;;;;8.00;4.10;;;;;;;;;;5077923;28;20504;-66
2023/10/25 11:05:53;;;;;;;8.90;3.90;;;;;;;;;;5079609;28;20047;-65
2023/10/25 11:08:21;;;;;;;8.60;4.47;;;;;;;;;;5082200;28;20099;-66
2023/10/25 11:10:46;;;;;;;7.00;4.13;;;;;;;;;;5081853;28;20175;-66
2023/10/25 11:13:11;;;;;;;10.43;4.80;;;;;;;;;;5083986;28;20028;-65
2023/10/25 11:15:38;;;;;;;7.85;4.35;;;;;;;;;;5081009;28;20024;-65
2023/10/25 11:18:09;;;;;;;9.15;5.10;;;;;;;;;;5083948;28;20494;-65
2023/10/25 11:20:34;;;;;;;9.45;4.45;;;;;;;;;;5083530;28;20396;-66
2023/10/25 11:23:02;;;;;;;8.35;4.50;;;;;;;;;;5081435;28;20043;-65
2023/10/25 11:25:27;;;;;;;9.23;3.93;;;;;;;;;;5083059;28;20019;-65
2023/10/25 11:27:55;;;;;;;6.70;4.20;;;;;;;;;;5082285;28;20472;-65
2023/10/25 11:30:21;;;;;;;6.57;4.07;;;;;;;;;;5079450;28;20503;-65
2023/10/25 11:32:47;;;;;;;10.80;4.30;;;;;;;;;;5080631;28;20021;-66
2023/10/25 11:35:23;;;;;;;10.90;3.70;;;;;;;;;;5081688;28;20024;-65
2023/10/25 11:37:50;;;;;;;7.60;4.23;;;;;;;;;;5079896;28;20023;-66
2023/10/25 11:40:15;;;;;;;8.57;4.28;;;;;;;;;;5075940;28;20004;-66
2023/10/25 11:42:41;;;;;;;8.07;4.40;;;;;;;;;;5078127;28;20040;-65
2023/10/25 11:45:06;;;;;;;7.65;4.70;;;;;;;;;;5079033;28;20027;-66
2023/10/25 11:47:32;;;;;;;11.07;4.70;;;;;;;;;;5077867;28;20012;-65
2023/10/25 11:50:01;;;;;;;8.77;4.90;;;;;;;;;;5079103;28;20017;-66
2023/10/25 11:52:27;;;;;;;10.67;4.50;;;;;;;;;;5079900;28;20028;-66
2023/10/25 11:54:56;;;;;;;9.17;4.13;;;;;;;;;;5083522;28;20027;-62
2023/10/25 11:57:28;;;;;;;7.93;4.73;;;;;;;;;;5078959;28;20626;-62
2023/10/25 11:59:53;;;;;;;8.70;4.80;;;;;;;;;;5079881;28;20468;-63
2023/10/25 12:02:20;;;;;;;8.77;4.43;;;;;;;;;;5079186;28;20040;-62
2023/10/25 12:04:45;;;;;;;6.90;4.32;;;;;;;;;;5082473;28;20488;-62
2023/10/25 12:07:11;;;;;;;7.32;4.30;;;;;;;;;;5079217;28;20323;-61
2023/10/25 12:09:38;;;;;;;7.85;4.20;;;;;;;;;;5079255;28;20124;-62
2023/10/25 12:12:03;;;;;;;8.57;4.70;;;;;;;;;;5080945;28;20077;-62
2023/10/25 12:14:29;;;;;;;8.98;3.95;;;;;;;;;;5081192;28;20200;-62
2023/10/25 12:16:54;;;;;;;7.65;3.92;;;;;;;;;;5078166;28;20042;-63
2023/10/25 12:19:19;;;;;;;8.38;3.88;;;;;;;;;;5078400;28;20031;-61
2023/10/25 12:21:44;;;;;;;6.80;3.97;;;;;;;;;;5081991;28;20012;-62
2023/10/25 12:24:09;;;;;;;10.73;4.32;;;;;;;;;;5082195;28;20016;-61
2023/10/25 12:26:35;;;;;;;12.10;4.45;;;;;;;;;;5081545;28;20027;-61
2023/10/25 12:29:00;;;;;;;8.02;4.40;;;;;;;;;;5078667;28;20024;-61
2023/10/25 12:31:25;;;;;;;11.30;4.77;;;;;;;;;;5077028;28;20438;-62
2023/10/25 12:33:50;;;;;;;10.77;4.65;;;;;;;;;;5079954;28;20374;-62
2023/10/25 12:36:16;;;;;;;7.32;4.15;;;;;;;;;;5078318;28;20028;-60
2023/10/25 12:38:42;;;;;;;5.78;3.55;;;;;;;;;;5073644;28;20452;-62
2023/10/25 12:41:07;;;;;;;6.90;3.73;;;;;;;;;;5077235;28;20070;-63
2023/10/25 12:43:32;;;;;;;11.23;4.30;;;;;;;;;;5077980;28;20048;-61
2023/10/25 12:45:58;;;;;;;7.15;3.80;;;;;;;;;;5078684;28;20024;-62
2023/10/25 12:48:23;;;;;;;6.07;3.17;;;;;;;;;;5078782;28;20035;-61
2023/10/25 12:50:48;;;;;;;5.50;3.10;;;;;;;;;;5076098;28;20219;-61
2023/10/25 12:53:14;;;;;;;7.67;4.00;;;;;;;;;;5079526;28;20145;-62
2023/10/25 12:55:39;;;;;;;7.50;3.63;;;;;;;;;;5077849;28;20074;-62
2023/10/25 12:58:06;;;;;;;5.70;3.03;;;;;;;;;;5078034;28;20542;-60
2023/10/25 13:00:31;;;;;;;7.83;3.27;;;;;;;;;;5079115;28;20473;-62
2023/10/25 13:02:56;;;;;;;10.87;3.70;;;;;;;;;;5078342;28;20102;-62
2023/10/25 13:05:21;;;;;;;8.60;3.47;;;;;;;;;;5081700;28;20024;-61
2023/10/25 13:07:46;;;;;;;8.77;3.80;;;;;;;;;;5075733;28;20020;-63
2023/10/25 13:10:12;;;;;;;8.90;3.67;;;;;;;;;;5079250;28;20043;-63
2023/10/25 13:12:37;;;;;;;6.80;3.83;;;;;;;;;;5080235;28;20120;-62
2023/10/25 13:15:03;;;;;;;8.23;3.90;;;;;;;;;;5080514;28;20027;-64
2023/10/25 13:17:28;;;;;;;7.47;3.80;;;;;;;;;;5080575;28;20056;-62
2023/10/25 13:19:55;;;;;;;6.53;3.17;;;;;;;;;;5079582;28;20016;-63
2023/10/25 13:22:20;;;;;;;7.47;3.70;;;;;;;;;;5079099;28;20024;-63
2023/10/25 13:24:46;;;;;;;8.43;3.27;;;;;;;;;;5081824;28;20039;-62
2023/10/25 13:27:11;;;;;;;6.83;3.57;;;;;;;;;;5080261;28;20024;-61
2023/10/25 13:29:38;;;;;;;7.17;3.50;;;;;;;;;;5078439;28;20425;-60
2023/10/25 13:32:03;;;;;;;6.67;3.40;;;;;;;;;;5078848;28;20057;-64
2023/10/25 13:34:28;;;;;;;9.87;3.50;;;;;;;;;;5079377;28;20031;-61
2023/10/25 13:36:53;;;;;;;5.80;3.60;;;;;;;;;;5080437;28;20016;-62
2023/10/25 13:39:19;;;;;;;7.80;4.40;;;;;;;;;;5081905;28;20031;-62
2023/10/25 13:41:44;;;;;;;7.87;4.47;;;;;;;;;;5085323;28;20068;-63
2023/10/25 13:44:09;;;;;;;10.73;4.10;;;;;;;;;;5084897;28;20027;-61
2023/10/25 13:46:35;;;;;;;8.03;3.90;;;;;;;;;;5078396;28;20460;-61
2023/10/25 13:49:00;;;;;;;7.37;3.00;;;;;;;;;;5081058;28;20397;-64
2023/10/25 13:51:25;;;;;;;7.13;3.60;;;;;;;;;;5081878;28;20031;-61
2023/10/25 13:53:50;;;;;;;8.60;3.83;;;;;;;;;;5082308;28;20024;-62
2023/10/25 13:56:17;;;;;;;6.80;3.80;;;;;;;;;;5086337;28;20046;-63
2023/10/25 13:58:42;;;;;;;7.00;3.73;;;;;;;;;;5081996;28;20232;-63
2023/10/25 14:01:07;;;;;;;8.37;4.00;;;;;;;;;;5083516;28;20537;-61
2023/10/25 14:03:32;;;;;;;9.20;3.50;;;;;;;;;;5083245;28;20049;-61
2023/10/25 14:06:03;;;;;;;8.03;3.93;;;;;;;;;;5083491;28;20479;-61
2023/10/25 14:08:28;;;;;;;7.10;3.90;;;;;;;;;;5084979;28;20050;-62
2023/10/25 14:10:53;;;;;;;6.20;3.03;;;;;;;;;;5080991;28;20492;-63
2023/10/25 14:13:20;;;;;;;7.50;3.80;;;;;;;;;;5085069;28;20022;-61
2023/10/25 14:15:46;;;;;;;7.40;3.70;;;;;;;;;;5080239;28;20147;-65